sensor_id;sensor_type;location;lat;lon;timestamp;temperature;humidity
59025;DHT22;44806;48.008;13.666;2023-08-31T00:01:30;15.30;99.90
59025;DHT22;44806;48.008;13.666;2023-08-31T00:03:58;15.20;99.90
59025;DHT22;44806;48.008;13.666;2023-08-31T00:06:27;15.20;99.90
59025;DHT22;44806;48.008;13.666;2023-08-31T00:08:54;15.10;99.90
59025;DHT22;44806;48.008;13.666;2023-08-31T00:11:21;15.00;99.90
59025;DHT22;44806;48.008;13.666;2023-08-31T00:13:48;15.00;99.90
59025;DHT22;44806;48.008;13.666;2023-08-31T00:16:15;15.00;99.90
59025;DHT22;44806;48.008;13.666;2023-08-31T00:18:42;15.10;99.90
59025;DHT22;44806;48.008;13.666;2023-08-31T00:21:10;15.10;99.90
59025;DHT22;44806;48.008;13.666;2023-08-31T00:23:39;15.10;99.90
59025;DHT22;44806;48.008;13.666;2023-08-31T00:26:05;15.10;99.90
59025;DHT22;44806;48.008;13.666;2023-08-31T00:28:34;15.10;99.90
59025;DHT22;44806;48.008;13.666;2023-08-31T00:31:02;15.20;99.90
59025;DHT22;44806;48.008;13.666;2023-08-31T00:33:29;15.20;99.90
59025;DHT22;44806;48.008;13.666;2023-08-31T00:35:59;15.10;99.90
59025;DHT22;44806;48.008;13.666;2023-08-31T00:38:27;15.00;99.90
59025;DHT22;44806;48.008;13.666;2023-08-31T00:40:55;15.00;99.90
59025;DHT22;44806;48.008;13.666;2023-08-31T00:43:23;14.90;99.90
59025;DHT22;44806;48.008;13.666;2023-08-31T00:45:51;14.80;99.90
59025;DHT22;44806;48.008;13.666;2023-08-31T00:48:19;14.90;99.90
59025;DHT22;44806;48.008;13.666;2023-08-31T00:50:47;14.80;99.90
59025;DHT22;44806;48.008;13.666;2023-08-31T00:53:14;14.70;99.90
59025;DHT22;44806;48.008;13.666;2023-08-31T00:55:42;14.80;99.90
59025;DHT22;44806;48.008;13.666;2023-08-31T00:58:11;14.80;99.90
59025;DHT22;44806;48.008;13.666;2023-08-31T01:00:46;14.80;99.90
59025;DHT22;44806;48.008;13.666;2023-08-31T01:03:20;14.80;99.90
59025;DHT22;44806;48.008;13.666;2023-08-31T01:05:54;14.90;99.90
59025;DHT22;44806;48.008;13.666;2023-08-31T01:08:29;14.80;99.90
59025;DHT22;44806;48.008;13.666;2023-08-31T01:11:06;14.70;99.90
59025;DHT22;44806;48.008;13.666;2023-08-31T01:13:37;14.70;99.90
59025;DHT22;44806;48.008;13.666;2023-08-31T01:16:07;14.70;99.90
59025;DHT22;44806;48.008;13.666;2023-08-31T01:18:37;14.70;99.90
59025;DHT22;44806;48.008;13.666;2023-08-31T01:21:10;14.70;99.90
59025;DHT22;44806;48.008;13.666;2023-08-31T01:23:49;14.80;99.90
59025;DHT22;44806;48.008;13.666;2023-08-31T01:26:17;14.70;99.90
59025;DHT22;44806;48.008;13.666;2023-08-31T01:28:44;14.60;99.90
59025;DHT22;44806;48.008;13.666;2023-08-31T01:31:11;14.60;99.90
59025;DHT22;44806;48.008;13.666;2023-08-31T01:33:38;14.60;99.90
59025;DHT22;44806;48.008;13.666;2023-08-31T01:36:08;14.60;99.90
59025;DHT22;44806;48.008;13.666;2023-08-31T01:38:43;14.60;99.90
59025;DHT22;44806;48.008;13.666;2023-08-31T01:41:14;14.50;99.90
59025;DHT22;44806;48.008;13.666;2023-08-31T01:43:44;14.60;99.90
59025;DHT22;44806;48.008;13.666;2023-08-31T01:46:11;14.60;99.90
59025;DHT22;44806;48.008;13.666;2023-08-31T01:48:39;14.60;99.90
59025;DHT22;44806;48.008;13.666;2023-08-31T01:51:07;14.60;99.90
59025;DHT22;44806;48.008;13.666;2023-08-31T01:53:34;14.60;99.90
59025;DHT22;44806;48.008;13.666;2023-08-31T01:56:02;14.60;99.90
59025;DHT22;44806;48.008;13.666;2023-08-31T01:58:31;14.60;99.90
59025;DHT22;44806;48.008;13.666;2023-08-31T02:00:58;14.60;99.90
59025;DHT22;44806;48.008;13.666;2023-08-31T02:03:25;14.70;99.90
59025;DHT22;44806;48.008;13.666;2023-08-31T02:05:52;14.70;99.90
59025;DHT22;44806;48.008;13.666;2023-08-31T02:08:19;14.60;99.90
59025;DHT22;44806;48.008;13.666;2023-08-31T02:10:46;14.70;99.90
59025;DHT22;44806;48.008;13.666;2023-08-31T02:13:14;14.60;99.90
59025;DHT22;44806;48.008;13.666;2023-08-31T02:15:43;14.60;99.90
59025;DHT22;44806;48.008;13.666;2023-08-31T02:18:10;14.60;99.90
59025;DHT22;44806;48.008;13.666;2023-08-31T02:20:37;14.70;99.90
59025;DHT22;44806;48.008;13.666;2023-08-31T02:23:04;14.70;99.90
59025;DHT22;44806;48.008;13.666;2023-08-31T02:25:31;14.70;99.90
59025;DHT22;44806;48.008;13.666;2023-08-31T02:27:58;14.70;99.90
59025;DHT22;44806;48.008;13.666;2023-08-31T02:30:25;14.80;99.90
59025;DHT22;44806;48.008;13.666;2023-08-31T02:32:54;14.80;99.90
59025;DHT22;44806;48.008;13.666;2023-08-31T02:35:20;14.80;99.90
59025;DHT22;44806;48.008;13.666;2023-08-31T02:37:47;14.80;99.90
59025;DHT22;44806;48.008;13.666;2023-08-31T02:40:14;14.90;99.90
59025;DHT22;44806;48.008;13.666;2023-08-31T02:42:42;14.80;99.90
59025;DHT22;44806;48.008;13.666;2023-08-31T02:45:09;14.80;99.90
59025;DHT22;44806;48.008;13.666;2023-08-31T02:47:36;14.80;99.90
59025;DHT22;44806;48.008;13.666;2023-08-31T02:50:06;14.70;99.90
59025;DHT22;44806;48.008;13.666;2023-08-31T02:52:35;14.70;99.90
59025;DHT22;44806;48.008;13.666;2023-08-31T02:55:02;14.60;99.90
59025;DHT22;44806;48.008;13.666;2023-08-31T02:57:29;14.70;99.90
59025;DHT22;44806;48.008;13.666;2023-08-31T02:59:56;14.60;99.90
59025;DHT22;44806;48.008;13.666;2023-08-31T03:02:23;14.60;99.90
59025;DHT22;44806;48.008;13.666;2023-08-31T03:04:50;14.60;99.90
59025;DHT22;44806;48.008;13.666;2023-08-31T03:07:19;14.50;99.90
59025;DHT22;44806;48.008;13.666;2023-08-31T03:09:49;14.50;99.90
59025;DHT22;44806;48.008;13.666;2023-08-31T03:12:16;14.50;99.90
59025;DHT22;44806;48.008;13.666;2023-08-31T03:14:43;14.50;99.90
59025;DHT22;44806;48.008;13.666;2023-08-31T03:17:10;14.50;99.90
59025;DHT22;44806;48.008;13.666;2023-08-31T03:19:37;14.40;99.90
59025;DHT22;44806;48.008;13.666;2023-08-31T03:22:04;14.30;99.90
59025;DHT22;44806;48.008;13.666;2023-08-31T03:24:33;14.40;99.90
59025;DHT22;44806;48.008;13.666;2023-08-31T03:27:00;14.50;99.90
59025;DHT22;44806;48.008;13.666;2023-08-31T03:29:27;14.50;99.90
59025;DHT22;44806;48.008;13.666;2023-08-31T03:31:57;14.50;99.90
59025;DHT22;44806;48.008;13.666;2023-08-31T03:34:28;14.50;99.90
59025;DHT22;44806;48.008;13.666;2023-08-31T03:36:55;14.40;99.90
59025;DHT22;44806;48.008;13.666;2023-08-31T03:39:22;14.50;99.90
59025;DHT22;44806;48.008;13.666;2023-08-31T03:41:50;14.50;99.90
59025;DHT22;44806;48.008;13.666;2023-08-31T03:44:17;14.40;99.90
59025;DHT22;44806;48.008;13.666;2023-08-31T03:46:44;14.40;99.90
59025;DHT22;44806;48.008;13.666;2023-08-31T03:49:10;14.40;99.90
59025;DHT22;44806;48.008;13.666;2023-08-31T03:51:37;14.40;99.90
59025;DHT22;44806;48.008;13.666;2023-08-31T03:54:04;14.40;99.90
59025;DHT22;44806;48.008;13.666;2023-08-31T03:56:32;14.40;99.90
59025;DHT22;44806;48.008;13.666;2023-08-31T03:59:02;14.30;99.90
59025;DHT22;44806;48.008;13.666;2023-08-31T04:01:29;14.30;99.90
59025;DHT22;44806;48.008;13.666;2023-08-31T04:03:56;14.40;99.90
59025;DHT22;44806;48.008;13.666;2023-08-31T04:06:23;14.30;99.90
59025;DHT22;44806;48.008;13.666;2023-08-31T04:08:49;14.30;99.90
59025;DHT22;44806;48.008;13.666;2023-08-31T04:11:16;14.30;99.90
59025;DHT22;44806;48.008;13.666;2023-08-31T04:13:43;14.30;99.90
59025;DHT22;44806;48.008;13.666;2023-08-31T04:16:12;14.30;99.90
59025;DHT22;44806;48.008;13.666;2023-08-31T04:18:38;14.30;99.90
59025;DHT22;44806;48.008;13.666;2023-08-31T04:21:06;14.20;99.90
59025;DHT22;44806;48.008;13.666;2023-08-31T04:23:33;14.20;99.90
59025;DHT22;44806;48.008;13.666;2023-08-31T04:26:00;14.10;99.90
59025;DHT22;44806;48.008;13.666;2023-08-31T04:28:27;14.10;99.90
59025;DHT22;44806;48.008;13.666;2023-08-31T04:30:54;14.10;99.90
59025;DHT22;44806;48.008;13.666;2023-08-31T04:33:22;14.10;99.90
59025;DHT22;44806;48.008;13.666;2023-08-31T04:35:49;14.10;99.90
59025;DHT22;44806;48.008;13.666;2023-08-31T04:38:16;14.10;99.90
59025;DHT22;44806;48.008;13.666;2023-08-31T04:40:43;14.10;99.90
59025;DHT22;44806;48.008;13.666;2023-08-31T04:43:10;14.10;99.90
59025;DHT22;44806;48.008;13.666;2023-08-31T04:45:37;14.00;99.90
59025;DHT22;44806;48.008;13.666;2023-08-31T04:48:04;14.00;99.90
59025;DHT22;44806;48.008;13.666;2023-08-31T04:50:33;14.00;99.90
59025;DHT22;44806;48.008;13.666;2023-08-31T04:52:59;14.10;99.90
59025;DHT22;44806;48.008;13.666;2023-08-31T04:55:26;14.00;99.90
59025;DHT22;44806;48.008;13.666;2023-08-31T04:57:53;14.00;99.90
59025;DHT22;44806;48.008;13.666;2023-08-31T05:00:22;14.10;99.90
59025;DHT22;44806;48.008;13.666;2023-08-31T05:02:49;14.10;99.90
59025;DHT22;44806;48.008;13.666;2023-08-31T05:05:16;14.20;99.90
59025;DHT22;44806;48.008;13.666;2023-08-31T05:07:46;14.20;99.90
59025;DHT22;44806;48.008;13.666;2023-08-31T05:10:13;14.20;99.90
59025;DHT22;44806;48.008;13.666;2023-08-31T05:12:40;14.20;99.90
59025;DHT22;44806;48.008;13.666;2023-08-31T05:15:08;14.20;99.90
59025;DHT22;44806;48.008;13.666;2023-08-31T05:17:35;14.20;99.90
59025;DHT22;44806;48.008;13.666;2023-08-31T05:20:02;14.10;99.90
59025;DHT22;44806;48.008;13.666;2023-08-31T05:22:30;14.10;99.90
59025;DHT22;44806;48.008;13.666;2023-08-31T05:24:58;13.90;99.90
59025;DHT22;44806;48.008;13.666;2023-08-31T05:27:26;13.90;99.90
59025;DHT22;44806;48.008;13.666;2023-08-31T05:29:53;13.90;99.90
59025;DHT22;44806;48.008;13.666;2023-08-31T05:32:20;13.90;99.90
59025;DHT22;44806;48.008;13.666;2023-08-31T05:34:47;14.00;99.90
59025;DHT22;44806;48.008;13.666;2023-08-31T05:37:13;13.90;99.90
59025;DHT22;44806;48.008;13.666;2023-08-31T05:39:40;13.90;99.90
59025;DHT22;44806;48.008;13.666;2023-08-31T05:42:09;14.00;99.90
59025;DHT22;44806;48.008;13.666;2023-08-31T05:44:36;14.00;99.90
59025;DHT22;44806;48.008;13.666;2023-08-31T05:47:03;14.10;99.90
59025;DHT22;44806;48.008;13.666;2023-08-31T05:49:32;14.10;99.90
59025;DHT22;44806;48.008;13.666;2023-08-31T05:52:00;14.20;99.90
59025;DHT22;44806;48.008;13.666;2023-08-31T05:54:27;14.20;99.90
59025;DHT22;44806;48.008;13.666;2023-08-31T05:56:54;14.20;99.90
59025;DHT22;44806;48.008;13.666;2023-08-31T05:59:22;14.20;99.90
59025;DHT22;44806;48.008;13.666;2023-08-31T06:01:49;14.20;99.90
59025;DHT22;44806;48.008;13.666;2023-08-31T06:04:16;14.30;99.90
59025;DHT22;44806;48.008;13.666;2023-08-31T06:06:43;14.40;99.90
59025;DHT22;44806;48.008;13.666;2023-08-31T06:09:10;14.40;99.90
59025;DHT22;44806;48.008;13.666;2023-08-31T06:11:37;14.40;99.90
59025;DHT22;44806;48.008;13.666;2023-08-31T06:14:05;14.30;99.90
59025;DHT22;44806;48.008;13.666;2023-08-31T06:16:33;14.20;99.90
59025;DHT22;44806;48.008;13.666;2023-08-31T06:19:00;14.20;99.90
59025;DHT22;44806;48.008;13.666;2023-08-31T06:21:27;14.20;99.90
59025;DHT22;44806;48.008;13.666;2023-08-31T06:23:53;14.20;99.90
59025;DHT22;44806;48.008;13.666;2023-08-31T06:26:20;14.20;99.90
59025;DHT22;44806;48.008;13.666;2023-08-31T06:28:47;14.10;99.90
59025;DHT22;44806;48.008;13.666;2023-08-31T06:31:15;14.20;99.90
59025;DHT22;44806;48.008;13.666;2023-08-31T06:33:43;14.10;99.90
59025;DHT22;44806;48.008;13.666;2023-08-31T06:36:10;14.20;99.90
59025;DHT22;44806;48.008;13.666;2023-08-31T06:38:37;14.20;99.90
59025;DHT22;44806;48.008;13.666;2023-08-31T06:41:04;14.30;99.90
59025;DHT22;44806;48.008;13.666;2023-08-31T06:43:31;14.30;99.90
59025;DHT22;44806;48.008;13.666;2023-08-31T06:45:58;14.40;99.90
59025;DHT22;44806;48.008;13.666;2023-08-31T06:48:25;14.50;99.90
59025;DHT22;44806;48.008;13.666;2023-08-31T06:50:53;14.60;99.90
59025;DHT22;44806;48.008;13.666;2023-08-31T06:53:21;14.70;99.90
59025;DHT22;44806;48.008;13.666;2023-08-31T06:55:48;14.90;99.90
59025;DHT22;44806;48.008;13.666;2023-08-31T06:58:15;15.00;99.90
59025;DHT22;44806;48.008;13.666;2023-08-31T07:00:42;15.00;99.90
59025;DHT22;44806;48.008;13.666;2023-08-31T07:03:09;15.00;99.90
59025;DHT22;44806;48.008;13.666;2023-08-31T07:05:41;15.10;99.90
59025;DHT22;44806;48.008;13.666;2023-08-31T07:08:10;15.20;99.90
59025;DHT22;44806;48.008;13.666;2023-08-31T07:10:37;15.30;99.90
59025;DHT22;44806;48.008;13.666;2023-08-31T07:13:04;15.30;99.90
59025;DHT22;44806;48.008;13.666;2023-08-31T07:15:31;15.30;99.90
59025;DHT22;44806;48.008;13.666;2023-08-31T07:17:58;15.30;99.90
59025;DHT22;44806;48.008;13.666;2023-08-31T07:20:24;15.30;99.90
59025;DHT22;44806;48.008;13.666;2023-08-31T07:22:51;15.40;99.90
59025;DHT22;44806;48.008;13.666;2023-08-31T07:25:20;15.40;99.90
59025;DHT22;44806;48.008;13.666;2023-08-31T07:27:47;15.50;99.90
59025;DHT22;44806;48.008;13.666;2023-08-31T07:30:16;15.50;99.90
59025;DHT22;44806;48.008;13.666;2023-08-31T07:32:42;15.60;99.90
59025;DHT22;44806;48.008;13.666;2023-08-31T07:35:09;15.70;99.90
59025;DHT22;44806;48.008;13.666;2023-08-31T07:37:36;15.80;99.90
59025;DHT22;44806;48.008;13.666;2023-08-31T07:40:04;15.90;99.90
59025;DHT22;44806;48.008;13.666;2023-08-31T07:42:35;15.80;99.90
59025;DHT22;44806;48.008;13.666;2023-08-31T07:45:02;15.80;99.90
59025;DHT22;44806;48.008;13.666;2023-08-31T07:47:31;15.90;99.90
59025;DHT22;44806;48.008;13.666;2023-08-31T07:49:58;15.90;99.90
59025;DHT22;44806;48.008;13.666;2023-08-31T07:52:25;15.80;99.90
59025;DHT22;44806;48.008;13.666;2023-08-31T07:54:52;15.90;99.90
59025;DHT22;44806;48.008;13.666;2023-08-31T07:57:19;15.80;99.90
59025;DHT22;44806;48.008;13.666;2023-08-31T07:59:48;15.90;99.90
59025;DHT22;44806;48.008;13.666;2023-08-31T08:02:14;16.10;99.90
59025;DHT22;44806;48.008;13.666;2023-08-31T08:04:42;16.20;99.90
59025;DHT22;44806;48.008;13.666;2023-08-31T08:07:09;16.10;99.90
59025;DHT22;44806;48.008;13.666;2023-08-31T08:09:36;16.20;99.90
59025;DHT22;44806;48.008;13.666;2023-08-31T08:12:03;16.20;99.90
59025;DHT22;44806;48.008;13.666;2023-08-31T08:14:30;16.20;99.90
59025;DHT22;44806;48.008;13.666;2023-08-31T08:16:58;16.20;99.90
59025;DHT22;44806;48.008;13.666;2023-08-31T08:19:25;16.40;99.90
59025;DHT22;44806;48.008;13.666;2023-08-31T08:21:52;16.30;99.90
59025;DHT22;44806;48.008;13.666;2023-08-31T08:24:19;16.30;99.90
59025;DHT22;44806;48.008;13.666;2023-08-31T08:26:46;16.20;99.90
59025;DHT22;44806;48.008;13.666;2023-08-31T08:29:13;16.20;99.90
59025;DHT22;44806;48.008;13.666;2023-08-31T08:31:40;16.20;99.90
59025;DHT22;44806;48.008;13.666;2023-08-31T08:34:09;16.30;99.90
59025;DHT22;44806;48.008;13.666;2023-08-31T08:36:36;16.40;99.90
59025;DHT22;44806;48.008;13.666;2023-08-31T08:39:03;16.40;99.90
59025;DHT22;44806;48.008;13.666;2023-08-31T08:41:32;16.20;99.90
59025;DHT22;44806;48.008;13.666;2023-08-31T08:44:02;16.20;99.90
59025;DHT22;44806;48.008;13.666;2023-08-31T08:46:31;16.20;99.90
59025;DHT22;44806;48.008;13.666;2023-08-31T08:48:59;16.10;99.90
59025;DHT22;44806;48.008;13.666;2023-08-31T08:51:30;16.00;99.90
59025;DHT22;44806;48.008;13.666;2023-08-31T08:53:59;16.00;99.90
59025;DHT22;44806;48.008;13.666;2023-08-31T08:56:26;16.00;99.90
59025;DHT22;44806;48.008;13.666;2023-08-31T08:58:53;16.00;99.90
59025;DHT22;44806;48.008;13.666;2023-08-31T09:01:21;16.10;99.90
59025;DHT22;44806;48.008;13.666;2023-08-31T09:03:48;15.90;99.90
59025;DHT22;44806;48.008;13.666;2023-08-31T09:06:15;16.10;99.90
59025;DHT22;44806;48.008;13.666;2023-08-31T09:08:44;16.10;99.90
59025;DHT22;44806;48.008;13.666;2023-08-31T09:11:19;16.10;99.90
59025;DHT22;44806;48.008;13.666;2023-08-31T09:13:48;16.10;99.90
59025;DHT22;44806;48.008;13.666;2023-08-31T09:16:24;16.20;99.90
59025;DHT22;44806;48.008;13.666;2023-08-31T09:18:51;16.10;99.90
59025;DHT22;44806;48.008;13.666;2023-08-31T09:21:18;16.20;99.90
59025;DHT22;44806;48.008;13.666;2023-08-31T09:23:56;16.20;99.90
59025;DHT22;44806;48.008;13.666;2023-08-31T09:26:23;16.30;99.90
59025;DHT22;44806;48.008;13.666;2023-08-31T09:28:50;16.30;99.90
59025;DHT22;44806;48.008;13.666;2023-08-31T09:31:18;16.30;99.90
59025;DHT22;44806;48.008;13.666;2023-08-31T09:33:50;16.40;99.90
59025;DHT22;44806;48.008;13.666;2023-08-31T09:36:19;16.60;99.90
59025;DHT22;44806;48.008;13.666;2023-08-31T09:38:48;16.70;99.90
59025;DHT22;44806;48.008;13.666;2023-08-31T09:41:15;16.90;99.90
59025;DHT22;44806;48.008;13.666;2023-08-31T09:43:43;17.10;99.90
59025;DHT22;44806;48.008;13.666;2023-08-31T09:46:10;17.20;99.90
59025;DHT22;44806;48.008;13.666;2023-08-31T09:48:38;17.20;99.90
59025;DHT22;44806;48.008;13.666;2023-08-31T09:51:07;17.30;99.90
59025;DHT22;44806;48.008;13.666;2023-08-31T09:53:36;17.30;99.90
59025;DHT22;44806;48.008;13.666;2023-08-31T09:56:06;17.20;99.90
59025;DHT22;44806;48.008;13.666;2023-08-31T09:58:33;17.40;99.90
59025;DHT22;44806;48.008;13.666;2023-08-31T10:01:01;17.30;99.90
59025;DHT22;44806;48.008;13.666;2023-08-31T10:03:28;17.10;99.90
59025;DHT22;44806;48.008;13.666;2023-08-31T10:05:55;17.00;99.90
59025;DHT22;44806;48.008;13.666;2023-08-31T10:08:23;17.10;99.90
59025;DHT22;44806;48.008;13.666;2023-08-31T10:10:52;16.90;99.90
59025;DHT22;44806;48.008;13.666;2023-08-31T10:13:21;16.80;99.90
59025;DHT22;44806;48.008;13.666;2023-08-31T10:15:49;16.80;99.90
59025;DHT22;44806;48.008;13.666;2023-08-31T10:18:16;16.80;99.90
59025;DHT22;44806;48.008;13.666;2023-08-31T10:20:43;16.80;99.90
59025;DHT22;44806;48.008;13.666;2023-08-31T10:23:11;16.70;99.90
59025;DHT22;44806;48.008;13.666;2023-08-31T10:26:01;16.60;99.90
59025;DHT22;44806;48.008;13.666;2023-08-31T10:28:39;16.70;99.90
59025;DHT22;44806;48.008;13.666;2023-08-31T10:31:07;16.80;99.90
59025;DHT22;44806;48.008;13.666;2023-08-31T10:33:35;16.80;99.90
59025;DHT22;44806;48.008;13.666;2023-08-31T10:36:12;16.80;99.90
59025;DHT22;44806;48.008;13.666;2023-08-31T10:38:39;16.90;99.90
59025;DHT22;44806;48.008;13.666;2023-08-31T10:41:20;16.80;99.90
59025;DHT22;44806;48.008;13.666;2023-08-31T10:43:49;16.90;99.90
59025;DHT22;44806;48.008;13.666;2023-08-31T10:46:30;16.90;99.90
59025;DHT22;44806;48.008;13.666;2023-08-31T10:48:59;17.00;99.90
59025;DHT22;44806;48.008;13.666;2023-08-31T10:51:28;17.00;99.90
59025;DHT22;44806;48.008;13.666;2023-08-31T10:54:09;16.80;99.90
59025;DHT22;44806;48.008;13.666;2023-08-31T10:56:53;16.90;99.90
59025;DHT22;44806;48.008;13.666;2023-08-31T10:59:23;17.00;99.90
59025;DHT22;44806;48.008;13.666;2023-08-31T11:01:57;17.00;99.90
59025;DHT22;44806;48.008;13.666;2023-08-31T11:04:26;17.00;99.90
59025;DHT22;44806;48.008;13.666;2023-08-31T11:07:15;17.20;99.90
59025;DHT22;44806;48.008;13.666;2023-08-31T11:09:44;17.40;99.90
59025;DHT22;44806;48.008;13.666;2023-08-31T11:12:11;17.70;99.90
59025;DHT22;44806;48.008;13.666;2023-08-31T11:14:40;17.90;99.90
59025;DHT22;44806;48.008;13.666;2023-08-31T11:17:07;17.70;99.90
59025;DHT22;44806;48.008;13.666;2023-08-31T11:19:35;17.80;99.90
59025;DHT22;44806;48.008;13.666;2023-08-31T11:22:03;17.80;99.90
59025;DHT22;44806;48.008;13.666;2023-08-31T11:24:30;17.90;99.90
59025;DHT22;44806;48.008;13.666;2023-08-31T11:26:58;18.00;99.90
59025;DHT22;44806;48.008;13.666;2023-08-31T11:29:25;18.20;99.90
59025;DHT22;44806;48.008;13.666;2023-08-31T11:31:56;18.40;99.90
59025;DHT22;44806;48.008;13.666;2023-08-31T11:34:23;18.60;99.90
59025;DHT22;44806;48.008;13.666;2023-08-31T11:36:50;18.60;99.90
59025;DHT22;44806;48.008;13.666;2023-08-31T11:39:18;18.70;99.90
59025;DHT22;44806;48.008;13.666;2023-08-31T11:41:45;18.50;99.90
59025;DHT22;44806;48.008;13.666;2023-08-31T11:44:14;18.30;99.90
59025;DHT22;44806;48.008;13.666;2023-08-31T11:46:45;18.40;99.90
59025;DHT22;44806;48.008;13.666;2023-08-31T11:49:15;18.30;99.90
59025;DHT22;44806;48.008;13.666;2023-08-31T11:51:43;18.10;99.90
59025;DHT22;44806;48.008;13.666;2023-08-31T11:54:11;18.00;99.90
59025;DHT22;44806;48.008;13.666;2023-08-31T11:56:39;17.90;99.90
59025;DHT22;44806;48.008;13.666;2023-08-31T11:59:09;18.00;99.90
59025;DHT22;44806;48.008;13.666;2023-08-31T12:01:41;18.00;99.90
59025;DHT22;44806;48.008;13.666;2023-08-31T12:04:12;18.00;99.90
59025;DHT22;44806;48.008;13.666;2023-08-31T12:06:41;18.10;99.90
59025;DHT22;44806;48.008;13.666;2023-08-31T12:09:09;18.30;99.90
59025;DHT22;44806;48.008;13.666;2023-08-31T12:11:36;18.40;99.70
59025;DHT22;44806;48.008;13.666;2023-08-31T12:14:17;18.30;99.90
59025;DHT22;44806;48.008;13.666;2023-08-31T12:16:44;18.20;99.90
59025;DHT22;44806;48.008;13.666;2023-08-31T12:19:11;18.50;99.90
59025;DHT22;44806;48.008;13.666;2023-08-31T12:21:41;18.50;99.90
59025;DHT22;44806;48.008;13.666;2023-08-31T12:24:08;18.80;99.90
59025;DHT22;44806;48.008;13.666;2023-08-31T12:26:35;18.60;99.90
59025;DHT22;44806;48.008;13.666;2023-08-31T12:29:02;18.60;99.90
59025;DHT22;44806;48.008;13.666;2023-08-31T12:31:30;18.60;98.70
59025;DHT22;44806;48.008;13.666;2023-08-31T12:33:57;18.80;99.90
59025;DHT22;44806;48.008;13.666;2023-08-31T12:36:25;18.80;98.90
59025;DHT22;44806;48.008;13.666;2023-08-31T12:38:53;18.90;99.50
59025;DHT22;44806;48.008;13.666;2023-08-31T12:41:20;19.10;99.00
59025;DHT22;44806;48.008;13.666;2023-08-31T12:43:47;19.10;99.10
59025;DHT22;44806;48.008;13.666;2023-08-31T12:46:14;19.10;99.10
59025;DHT22;44806;48.008;13.666;2023-08-31T12:48:42;19.10;97.30
59025;DHT22;44806;48.008;13.666;2023-08-31T12:51:09;19.30;97.20
59025;DHT22;44806;48.008;13.666;2023-08-31T12:53:38;19.30;95.40
59025;DHT22;44806;48.008;13.666;2023-08-31T12:56:07;19.20;96.70
59025;DHT22;44806;48.008;13.666;2023-08-31T12:58:33;19.30;96.30
59025;DHT22;44806;48.008;13.666;2023-08-31T13:01:00;19.40;96.00
59025;DHT22;44806;48.008;13.666;2023-08-31T13:03:27;19.50;96.80
59025;DHT22;44806;48.008;13.666;2023-08-31T13:05:54;19.60;96.10
59025;DHT22;44806;48.008;13.666;2023-08-31T13:08:21;19.70;97.80
59025;DHT22;44806;48.008;13.666;2023-08-31T13:10:52;19.60;96.00
59025;DHT22;44806;48.008;13.666;2023-08-31T13:13:21;19.60;96.00
59025;DHT22;44806;48.008;13.666;2023-08-31T13:15:48;19.90;98.40
59025;DHT22;44806;48.008;13.666;2023-08-31T13:18:16;20.10;96.40
59025;DHT22;44806;48.008;13.666;2023-08-31T13:20:49;20.10;95.60
59025;DHT22;44806;48.008;13.666;2023-08-31T13:23:16;19.80;94.10
59025;DHT22;44806;48.008;13.666;2023-08-31T13:25:43;19.80;93.60
59025;DHT22;44806;48.008;13.666;2023-08-31T13:28:10;19.70;94.80
59025;DHT22;44806;48.008;13.666;2023-08-31T13:30:39;19.40;94.00
59025;DHT22;44806;48.008;13.666;2023-08-31T13:33:06;19.20;94.70
59025;DHT22;44806;48.008;13.666;2023-08-31T13:35:34;19.20;95.50
59025;DHT22;44806;48.008;13.666;2023-08-31T13:38:01;19.40;94.20
59025;DHT22;44806;48.008;13.666;2023-08-31T13:40:28;19.60;94.40
59025;DHT22;44806;48.008;13.666;2023-08-31T13:42:56;19.70;93.80
59025;DHT22;44806;48.008;13.666;2023-08-31T13:45:27;19.80;96.90
59025;DHT22;44806;48.008;13.666;2023-08-31T13:47:55;19.80;94.40
59025;DHT22;44806;48.008;13.666;2023-08-31T13:50:22;20.10;96.00
59025;DHT22;44806;48.008;13.666;2023-08-31T13:52:49;20.30;94.60
59025;DHT22;44806;48.008;13.666;2023-08-31T13:55:16;20.60;96.80
59025;DHT22;44806;48.008;13.666;2023-08-31T13:57:43;20.80;93.30
59025;DHT22;44806;48.008;13.666;2023-08-31T14:00:11;21.00;92.80
59025;DHT22;44806;48.008;13.666;2023-08-31T14:02:38;21.20;95.50
59025;DHT22;44806;48.008;13.666;2023-08-31T14:05:07;20.90;90.90
59025;DHT22;44806;48.008;13.666;2023-08-31T14:07:35;21.20;93.80
59025;DHT22;44806;48.008;13.666;2023-08-31T14:10:03;20.90;91.20
59025;DHT22;44806;48.008;13.666;2023-08-31T14:12:30;20.90;93.20
59025;DHT22;44806;48.008;13.666;2023-08-31T14:14:57;20.70;91.70
59025;DHT22;44806;48.008;13.666;2023-08-31T14:17:26;20.90;92.70
59025;DHT22;44806;48.008;13.666;2023-08-31T14:19:53;20.80;90.60
59025;DHT22;44806;48.008;13.666;2023-08-31T14:22:21;21.00;93.30
59025;DHT22;44806;48.008;13.666;2023-08-31T14:24:49;20.80;90.40
59025;DHT22;44806;48.008;13.666;2023-08-31T14:27:16;20.60;91.60
59025;DHT22;44806;48.008;13.666;2023-08-31T14:29:43;20.20;91.40
59025;DHT22;44806;48.008;13.666;2023-08-31T14:32:10;20.20;92.80
59025;DHT22;44806;48.008;13.666;2023-08-31T14:34:37;20.40;94.30
59025;DHT22;44806;48.008;13.666;2023-08-31T14:37:03;20.30;92.00
59025;DHT22;44806;48.008;13.666;2023-08-31T14:39:32;20.30;93.00
59025;DHT22;44806;48.008;13.666;2023-08-31T14:41:59;20.60;93.70
59025;DHT22;44806;48.008;13.666;2023-08-31T14:44:26;20.60;91.70
59025;DHT22;44806;48.008;13.666;2023-08-31T14:46:53;20.70;91.70
59025;DHT22;44806;48.008;13.666;2023-08-31T14:49:22;21.10;95.70
59025;DHT22;44806;48.008;13.666;2023-08-31T14:51:50;21.60;92.80
59025;DHT22;44806;48.008;13.666;2023-08-31T14:54:17;21.70;91.70
59025;DHT22;44806;48.008;13.666;2023-08-31T14:56:45;21.70;91.20
59025;DHT22;44806;48.008;13.666;2023-08-31T14:59:12;21.60;94.10
59025;DHT22;44806;48.008;13.666;2023-08-31T15:01:39;21.90;90.70
59025;DHT22;44806;48.008;13.666;2023-08-31T15:04:06;21.60;91.40
59025;DHT22;44806;48.008;13.666;2023-08-31T15:06:33;21.50;92.90
59025;DHT22;44806;48.008;13.666;2023-08-31T15:09:00;21.90;91.90
59025;DHT22;44806;48.008;13.666;2023-08-31T15:11:27;21.60;90.80
59025;DHT22;44806;48.008;13.666;2023-08-31T15:13:56;21.20;92.30
59025;DHT22;44806;48.008;13.666;2023-08-31T15:16:23;21.40;92.30
59025;DHT22;44806;48.008;13.666;2023-08-31T15:18:50;21.10;92.40
59025;DHT22;44806;48.008;13.666;2023-08-31T15:21:18;21.30;93.40